createdAt,value
2018-09-01T00:01:11.036Z,2.33
2018-09-01T00:03:39.069Z,2.90
2018-09-01T00:06:07.100Z,2.80
2018-09-01T00:08:35.144Z,2.73
2018-09-01T00:11:03.203Z,2.50
2018-09-01T00:13:31.227Z,2.80
2018-09-01T00:15:59.259Z,2.80
2018-09-01T00:18:27.332Z,2.70
2018-09-01T00:20:55.392Z,2.97
2018-09-01T00:23:23.486Z,2.70
2018-09-01T00:25:51.511Z,2.77
2018-09-01T00:28:19.588Z,3.07
2018-09-01T00:30:47.733Z,2.80
2018-09-01T00:33:15.688Z,2.50
2018-09-01T00:35:43.723Z,2.50
2018-09-01T00:38:17.356Z,2.83
2018-09-01T00:40:45.381Z,2.70
2018-09-01T00:43:13.428Z,2.53
2018-09-01T00:45:41.486Z,2.70
2018-09-01T00:48:09.510Z,2.60
2018-09-01T00:50:37.544Z,3.00
2018-09-01T00:53:05.753Z,2.70
2018-09-01T00:55:34.093Z,2.57
2018-09-01T00:58:02.671Z,2.90
2018-09-01T01:00:30.728Z,3.07
2018-09-01T01:02:58.740Z,2.70
2018-09-01T01:05:26.788Z,3.10
2018-09-01T01:07:54.833Z,2.63
2018-09-01T01:10:22.880Z,3.10
2018-09-01T01:12:50.899Z,2.60
2018-09-01T01:15:19.400Z,2.90
2018-09-01T01:17:47.432Z,2.67
2018-09-01T01:20:15.448Z,3.13
2018-09-01T01:22:43.508Z,3.03
2018-09-01T01:25:11.555Z,2.73
2018-09-01T01:27:39.584Z,3.27
2018-09-01T01:30:07.634Z,2.93
2018-09-01T01:32:35.833Z,3.10
2018-09-01T01:35:04.378Z,3.10
2018-09-01T01:37:33.984Z,3.20
2018-09-01T01:40:02.913Z,3.13
2018-09-01T01:42:30.944Z,3.13
2018-09-01T01:44:59.139Z,2.97
2018-09-01T01:47:27.164Z,3.27
2018-09-01T01:49:55.335Z,2.90
2018-09-01T01:52:23.396Z,3.07
2018-09-01T01:54:51.410Z,3.40
2018-09-01T01:57:19.452Z,3.07
2018-09-01T01:59:47.509Z,3.10
2018-09-01T02:02:22.211Z,3.07
2018-09-01T02:04:50.272Z,3.13
2018-09-01T02:07:18.309Z,2.80
2018-09-01T02:09:46.372Z,3.37
2018-09-01T02:12:14.461Z,3.30
2018-09-01T02:14:42.488Z,2.87
2018-09-01T02:17:10.604Z,3.47
2018-09-01T02:19:38.664Z,3.20
2018-09-01T02:22:06.704Z,2.90
2018-09-01T02:24:34.758Z,2.73
2018-09-01T02:27:02.805Z,2.90
2018-09-01T02:29:30.832Z,3.30
2018-09-01T02:31:58.894Z,3.30
2018-09-01T02:34:26.925Z,3.47
2018-09-01T02:36:54.953Z,3.17
2018-09-01T02:39:22.987Z,3.43
2018-09-01T02:41:51.042Z,3.50
2018-09-01T02:44:19.066Z,3.30
2018-09-01T02:46:47.096Z,3.27
2018-09-01T02:49:15.135Z,3.40
2018-09-01T02:51:43.157Z,3.13
2018-09-01T02:54:11.167Z,3.27
2018-09-01T02:56:39.244Z,3.80
2018-09-01T02:59:07.284Z,3.47
2018-09-01T03:01:35.324Z,3.03
2018-09-01T03:04:03.549Z,3.40
2018-09-01T03:06:46.900Z,3.40
2018-09-01T03:09:15.279Z,3.77
2018-09-01T03:11:43.295Z,3.10
2018-09-01T03:14:11.364Z,3.50
2018-09-01T03:16:39.397Z,3.60
2018-09-01T03:19:07.953Z,3.80
2018-09-01T03:21:36.091Z,3.73
2018-09-01T03:24:04.201Z,3.33
2018-09-01T03:26:32.309Z,4.03
2018-09-01T03:29:00.340Z,3.40
2018-09-01T03:31:28.392Z,3.43
2018-09-01T03:33:56.422Z,3.10
2018-09-01T03:36:24.464Z,3.50
2018-09-01T03:38:52.500Z,3.63
2018-09-01T03:41:20.557Z,3.77
2018-09-01T03:43:48.994Z,4.20
2018-09-01T03:46:17.116Z,3.57
2018-09-01T03:48:45.170Z,3.80
2018-09-01T03:51:13.198Z,3.90
2018-09-01T03:53:41.257Z,3.60
2018-09-01T03:56:09.285Z,3.90
2018-09-01T03:58:37.311Z,3.90
2018-09-01T04:01:05.356Z,3.30
2018-09-01T04:03:33.423Z,3.77
2018-09-01T04:06:01.472Z,3.57
2018-09-01T04:08:29.533Z,3.63
2018-09-01T04:10:57.692Z,3.80
2018-09-01T04:13:25.733Z,3.63
2018-09-01T04:15:53.785Z,3.73
2018-09-01T04:18:21.844Z,3.73
2018-09-01T04:20:49.914Z,3.70
2018-09-01T04:23:17.972Z,3.90
2018-09-01T04:25:46.010Z,3.90
2018-09-01T04:28:14.049Z,3.73
2018-09-01T04:30:42.080Z,3.70
2018-09-01T04:33:10.128Z,4.00
2018-09-01T04:35:38.163Z,3.67
2018-09-01T04:38:06.211Z,4.00
2018-09-01T04:40:34.249Z,4.00
2018-09-01T04:43:02.288Z,4.10
2018-09-01T04:45:30.312Z,3.80
2018-09-01T04:47:58.344Z,3.87
2018-09-01T04:50:26.379Z,4.10
2018-09-01T04:52:54.428Z,3.60
2018-09-01T04:55:22.481Z,3.70
2018-09-01T04:57:50.520Z,3.80
2018-09-01T05:00:20.429Z,4.40
2018-09-01T05:02:48.733Z,4.13
2018-09-01T05:05:17.004Z,4.60
2018-09-01T05:07:45.292Z,3.90
2018-09-01T05:10:13.328Z,4.00
2018-09-01T05:12:41.361Z,4.20
2018-09-01T05:15:09.396Z,3.70
2018-09-01T05:17:37.443Z,4.03
2018-09-01T05:20:05.592Z,4.33
2018-09-01T05:22:35.273Z,3.90
2018-09-01T05:25:03.305Z,4.20
2018-09-01T05:27:31.904Z,4.20
2018-09-01T05:29:59.936Z,8.03
2018-09-01T05:32:27.950Z,6.87
2018-09-01T05:34:56.004Z,7.33
2018-09-01T05:37:24.044Z,5.33
2018-09-01T05:39:52.070Z,5.50
2018-09-01T05:42:20.115Z,5.70
2018-09-01T05:44:48.151Z,7.13
2018-09-01T05:47:16.188Z,4.93
2018-09-01T05:49:44.239Z,4.80
2018-09-01T05:52:12.277Z,4.87
2018-09-01T05:54:40.296Z,4.40
2018-09-01T05:57:08.336Z,4.17
2018-09-01T05:59:36.393Z,4.70
2018-09-01T06:02:04.442Z,4.77
2018-09-01T06:04:32.465Z,4.60
2018-09-01T06:07:00.510Z,5.10
2018-09-01T06:09:28.612Z,4.90
2018-09-01T06:11:56.655Z,4.47
2018-09-01T06:14:24.696Z,5.20
2018-09-01T06:16:52.761Z,4.90
2018-09-01T06:19:20.963Z,4.37
2018-09-01T06:21:48.910Z,4.57
2018-09-01T06:24:17.049Z,4.90
2018-09-01T06:26:45.094Z,6.80
2018-09-01T06:29:14.837Z,8.30
2018-09-01T06:31:47.295Z,5.77
2018-09-01T06:34:15.391Z,5.30
2018-09-01T06:36:43.401Z,4.67
2018-09-01T06:39:11.487Z,5.17
2018-09-01T06:41:39.538Z,4.70
2018-09-01T06:44:07.776Z,4.67
2018-09-01T06:46:35.820Z,4.93
2018-09-01T06:49:03.835Z,4.90
2018-09-01T06:51:31.952Z,5.37
2018-09-01T06:53:59.941Z,5.70
2018-09-01T06:56:27.991Z,5.30
2018-09-01T06:58:56.011Z,5.23
2018-09-01T07:01:24.097Z,4.90
2018-09-01T07:03:52.132Z,4.40
2018-09-01T07:06:20.216Z,4.20
2018-09-01T07:11:22.630Z,4.30
2018-09-01T07:13:50.703Z,4.20
2018-09-01T07:16:18.753Z,4.73
2018-09-01T07:18:46.816Z,4.07
2018-09-01T07:21:14.891Z,3.77
2018-09-01T07:23:42.960Z,4.30
2018-09-01T07:26:11.044Z,4.30
2018-09-01T07:28:39.071Z,3.73
2018-09-01T07:31:07.573Z,3.90
2018-09-01T07:33:35.181Z,3.80
2018-09-01T07:36:03.223Z,3.70
2018-09-01T07:38:31.252Z,3.30
2018-09-01T07:40:59.307Z,3.70
2018-09-01T07:43:27.360Z,3.23
2018-09-01T07:45:55.718Z,3.70
2018-09-01T07:48:23.756Z,3.73
2018-09-01T07:50:51.791Z,3.77
2018-09-01T07:53:19.843Z,3.40
2018-09-01T07:55:47.896Z,3.50
2018-09-01T07:58:15.956Z,3.30
2018-09-01T08:00:43.997Z,3.50
2018-09-01T08:03:12.058Z,3.40
2018-09-01T08:05:40.096Z,7.47
2018-09-01T08:08:08.153Z,6.77
2018-09-01T08:10:36.192Z,7.00
2018-09-01T08:13:04.271Z,7.20
2018-09-01T08:15:32.333Z,4.53
2018-09-01T08:18:00.409Z,4.57
2018-09-01T08:20:28.500Z,3.83
2018-09-01T08:22:56.557Z,3.70
2018-09-01T08:25:24.584Z,4.00
2018-09-01T08:27:52.728Z,4.07
2018-09-01T08:30:20.767Z,4.23
2018-09-01T08:32:48.811Z,3.80
2018-09-01T08:35:16.857Z,3.90
2018-09-01T08:37:44.897Z,3.23
2018-09-01T08:40:13.004Z,3.53
2018-09-01T08:42:41.054Z,3.50
2018-09-01T08:45:09.110Z,4.03
2018-09-01T08:47:37.235Z,3.33
2018-09-01T08:50:05.633Z,3.57
2018-09-01T08:52:33.674Z,3.83
2018-09-01T08:55:01.698Z,3.50
2018-09-01T08:57:29.744Z,3.70
2018-09-01T08:59:57.776Z,3.63
2018-09-01T09:02:25.816Z,3.97
2018-09-01T09:04:53.861Z,3.70
2018-09-01T09:07:21.912Z,3.83
2018-09-01T09:09:50.003Z,4.33
2018-09-01T09:12:18.002Z,3.37
2018-09-01T09:14:46.048Z,3.97
2018-09-01T09:17:14.096Z,4.13
2018-09-01T09:19:42.271Z,3.83
2018-09-01T09:22:10.327Z,3.53
2018-09-01T09:24:38.350Z,3.90
2018-09-01T09:27:06.557Z,3.93
2018-09-01T09:29:35.167Z,3.83
2018-09-01T09:32:03.345Z,4.00
2018-09-01T09:34:31.413Z,3.93
2018-09-01T09:36:59.480Z,4.13
2018-09-01T09:39:27.533Z,4.80
2018-09-01T09:41:55.675Z,4.47
2018-09-01T09:44:23.693Z,4.00
2018-09-01T09:46:51.872Z,4.00
2018-09-01T09:49:19.920Z,4.20
2018-09-01T09:51:48.025Z,3.53
2018-09-01T09:54:16.293Z,3.50
2018-09-01T09:56:44.325Z,3.77
2018-09-01T09:59:12.381Z,4.37
2018-09-01T10:01:41.527Z,4.07
2018-09-01T10:04:10.301Z,3.60
2018-09-01T10:06:39.538Z,3.50
2018-09-01T10:09:11.751Z,3.37
2018-09-01T10:11:40.564Z,3.17
2018-09-01T10:14:08.602Z,3.37
2018-09-01T10:16:36.653Z,7.07
2018-09-01T10:19:04.686Z,4.00
2018-09-01T10:21:32.834Z,3.40
2018-09-01T10:24:00.856Z,3.60
2018-09-01T10:26:28.930Z,3.43
2018-09-01T10:28:56.967Z,4.07
2018-09-01T10:31:25.085Z,4.03
2018-09-01T10:33:53.125Z,3.97
2018-09-01T10:36:21.207Z,4.30
2018-09-01T10:38:49.588Z,3.77
2018-09-01T10:41:17.794Z,3.30
2018-09-01T10:43:45.840Z,3.47
2018-09-01T10:46:13.948Z,2.90
2018-09-01T10:48:42.511Z,2.90
2018-09-01T10:51:10.561Z,3.90
2018-09-01T10:53:38.608Z,10.47
2018-09-01T10:56:06.789Z,6.80
2018-09-01T10:58:34.878Z,5.40
2018-09-01T11:01:03.052Z,21.13
2018-09-01T11:03:31.228Z,7.07
2018-09-01T11:05:59.401Z,5.47
2018-09-01T11:08:27.428Z,7.40
2018-09-01T11:10:55.458Z,5.13
2018-09-01T11:13:23.492Z,5.13
2018-09-01T11:15:51.655Z,4.43
2018-09-01T11:18:19.660Z,3.53
2018-09-01T11:20:47.729Z,3.77
2018-09-01T11:23:15.731Z,2.97
2018-09-01T11:25:43.759Z,2.80
2018-09-01T11:28:12.007Z,2.80
2018-09-01T11:30:39.980Z,2.97
2018-09-01T11:33:08.118Z,3.10
2018-09-01T11:35:36.100Z,2.90
2018-09-01T11:38:04.131Z,3.33
2018-09-01T11:40:32.208Z,3.37
2018-09-01T11:43:00.466Z,2.90
2018-09-01T11:45:28.364Z,2.77
2018-09-01T11:47:56.423Z,2.57
2018-09-01T11:50:24.464Z,2.73
2018-09-01T11:52:52.492Z,2.60
2018-09-01T11:55:21.217Z,2.77
2018-09-01T11:57:49.242Z,2.90
2018-09-01T12:00:17.299Z,2.63
2018-09-01T12:02:45.361Z,35.17
2018-09-01T12:05:13.393Z,6.73
2018-09-01T12:07:41.451Z,3.50
2018-09-01T12:10:09.760Z,3.60
2018-09-01T12:12:38.224Z,3.00
2018-09-01T12:15:06.272Z,3.80
2018-09-01T12:17:34.313Z,3.17
2018-09-01T12:20:02.362Z,2.90
2018-09-01T12:22:30.409Z,3.30
2018-09-01T12:24:58.501Z,3.30
2018-09-01T12:27:26.571Z,3.30
2018-09-01T12:29:54.621Z,3.47
2018-09-01T12:32:22.680Z,3.50
2018-09-01T12:34:50.691Z,3.37
2018-09-01T12:37:18.713Z,3.77
2018-09-01T12:39:46.763Z,3.60
2018-09-01T12:42:15.171Z,3.50
2018-09-01T12:44:43.198Z,6.30
2018-09-01T12:47:11.232Z,5.07
2018-09-01T12:49:39.257Z,4.60
2018-09-01T12:52:07.336Z,3.87
2018-09-01T12:54:35.374Z,4.03
2018-09-01T12:57:03.395Z,4.00
2018-09-01T12:59:31.443Z,3.90
2018-09-01T13:01:59.784Z,3.90
2018-09-01T13:04:27.812Z,3.83
2018-09-01T13:06:55.837Z,3.97
2018-09-01T13:09:23.905Z,4.13
2018-09-01T13:11:51.945Z,4.10
2018-09-01T13:14:19.953Z,4.07
2018-09-01T13:16:47.999Z,4.60
2018-09-01T13:19:16.016Z,3.70
2018-09-01T13:21:44.049Z,4.33
2018-09-01T13:24:12.119Z,4.23
2018-09-01T13:26:40.136Z,4.10
2018-09-01T13:29:08.160Z,6.17
2018-09-01T13:31:36.193Z,4.50
2018-09-01T13:34:04.216Z,4.23
2018-09-01T13:36:32.242Z,3.93
2018-09-01T13:39:00.418Z,4.10
2018-09-01T13:41:28.316Z,4.17
2018-09-01T13:43:56.353Z,4.73
2018-09-01T13:46:24.884Z,4.20
2018-09-01T13:48:54.044Z,4.90
2018-09-01T13:51:22.355Z,4.73
2018-09-01T13:53:51.741Z,5.40
2018-09-01T13:56:21.885Z,4.40
2018-09-01T13:58:51.017Z,4.83
2018-09-01T14:01:20.002Z,4.73
2018-09-01T14:03:48.430Z,4.70
2018-09-01T14:06:16.493Z,4.83
2018-09-01T14:08:44.512Z,4.53
2018-09-01T14:11:12.555Z,4.70
2018-09-01T14:13:40.584Z,4.77
2018-09-01T14:16:08.721Z,5.13
2018-09-01T14:18:36.763Z,5.33
2018-09-01T14:21:04.822Z,5.70
2018-09-01T14:23:32.880Z,5.23
2018-09-01T14:26:00.934Z,5.13
2018-09-01T14:28:29.077Z,5.77
2018-09-01T14:30:57.144Z,4.77
2018-09-01T14:33:25.236Z,4.80
2018-09-01T14:35:53.280Z,4.90
2018-09-01T14:38:21.318Z,4.70
2018-09-01T14:40:49.376Z,5.30
2018-09-01T14:43:17.394Z,7.20
2018-09-01T14:45:45.507Z,9.90
2018-09-01T14:48:13.661Z,12.07
2018-09-01T14:50:41.712Z,7.70
2018-09-01T14:53:09.799Z,5.57
2018-09-01T14:55:37.877Z,6.70
2018-09-01T14:58:05.970Z,6.77
2018-09-01T15:00:34.054Z,6.87
2018-09-01T15:03:02.099Z,6.30
2018-09-01T15:05:30.168Z,5.73
2018-09-01T15:07:58.212Z,5.73
2018-09-01T15:10:26.312Z,5.57
2018-09-01T15:12:54.336Z,5.67
2018-09-01T15:15:22.365Z,6.00
2018-09-01T15:17:50.405Z,5.50
2018-09-01T15:20:18.467Z,7.63
2018-09-01T15:22:46.580Z,11.67
2018-09-01T15:25:14.657Z,15.90
2018-09-01T15:27:42.695Z,14.70
2018-09-01T15:30:10.748Z,18.27
2018-09-01T15:32:38.829Z,19.93
2018-09-01T15:35:07.042Z,13.13
2018-09-01T15:37:35.096Z,11.63
2018-09-01T15:40:03.154Z,16.93
2018-09-01T15:42:31.233Z,25.40
2018-09-01T15:44:59.264Z,13.13
2018-09-01T15:47:27.336Z,7.93
2018-09-01T15:49:55.352Z,7.13
2018-09-01T15:52:23.376Z,6.97
2018-09-01T15:54:51.413Z,6.80
2018-09-01T15:57:19.447Z,6.00
2018-09-01T15:59:47.540Z,6.67
2018-09-01T16:02:15.590Z,7.47
2018-09-01T16:04:43.712Z,7.23
2018-09-01T16:07:11.744Z,7.43
2018-09-01T16:09:39.802Z,8.00
2018-09-01T16:12:07.814Z,6.93
2018-09-01T16:14:35.833Z,6.70
2018-09-01T16:17:03.876Z,6.53
2018-09-01T16:19:31.931Z,5.80
2018-09-01T16:21:59.963Z,5.97
2018-09-01T16:24:28.049Z,5.87
2018-09-01T16:26:56.093Z,5.60
2018-09-01T16:29:24.173Z,5.70
2018-09-01T16:31:52.219Z,5.80
2018-09-01T16:34:20.258Z,6.13
2018-09-01T16:36:48.294Z,6.43
2018-09-01T16:39:16.366Z,6.40
2018-09-01T16:41:44.391Z,6.37
2018-09-01T16:44:12.433Z,6.77
2018-09-01T16:46:40.524Z,6.77
2018-09-01T16:49:08.575Z,6.77
2018-09-01T16:51:36.807Z,5.90
2018-09-01T16:54:04.956Z,6.67
2018-09-01T16:56:32.989Z,5.77
2018-09-01T16:59:01.128Z,5.57
2018-09-01T17:01:29.195Z,5.83
2018-09-01T17:03:57.223Z,5.40
2018-09-01T17:06:25.288Z,5.20
2018-09-01T17:08:53.360Z,5.57
2018-09-01T17:11:21.400Z,5.43
2018-09-01T17:13:49.501Z,6.10
2018-09-01T17:16:17.561Z,6.37
2018-09-01T17:18:45.632Z,6.77
2018-09-01T17:21:13.752Z,7.00
2018-09-01T17:23:41.956Z,7.20
2018-09-01T17:26:09.979Z,6.77
2018-09-01T17:28:37.996Z,7.30
2018-09-01T17:31:06.481Z,7.07
2018-09-01T17:33:34.509Z,7.17
2018-09-01T17:36:02.589Z,6.50
2018-09-01T17:38:30.655Z,6.50
2018-09-01T17:40:58.676Z,6.10
2018-09-01T17:43:26.873Z,5.57
2018-09-01T17:45:55.300Z,5.80
2018-09-01T17:48:23.328Z,6.07
2018-09-01T17:50:51.564Z,5.77
2018-09-01T17:53:19.632Z,5.50
2018-09-01T17:55:47.663Z,5.50
2018-09-01T17:58:15.689Z,5.93
2018-09-01T18:00:43.758Z,6.20
2018-09-01T18:03:12.021Z,6.00
2018-09-01T18:05:40.094Z,6.17
2018-09-01T18:08:08.140Z,6.37
2018-09-01T18:10:36.202Z,6.50
2018-09-01T18:13:04.220Z,6.43
2018-09-01T18:15:32.305Z,6.70
2018-09-01T18:18:00.348Z,6.67
2018-09-01T18:20:28.439Z,9.00
2018-09-01T18:22:56.519Z,7.43
2018-09-01T18:25:24.628Z,6.93
2018-09-01T18:27:52.708Z,7.30
2018-09-01T18:30:20.872Z,6.53
2018-09-01T18:32:48.929Z,7.00
2018-09-01T18:35:17.037Z,6.40
2018-09-01T18:37:45.022Z,6.23
2018-09-01T18:40:13.070Z,6.90
2018-09-01T18:42:41.141Z,6.47
2018-09-01T18:45:09.485Z,6.40
2018-09-01T18:47:37.525Z,6.30
2018-09-01T18:50:05.926Z,6.27
2018-09-01T18:52:34.005Z,6.47
2018-09-01T18:55:02.080Z,6.37
2018-09-01T18:57:30.150Z,6.57
2018-09-01T18:59:59.034Z,6.27
2018-09-01T19:02:27.055Z,7.80
2018-09-01T19:04:55.216Z,7.47
2018-09-01T19:07:23.221Z,7.37
2018-09-01T19:09:51.309Z,7.60
2018-09-01T19:12:19.368Z,7.60
2018-09-01T19:14:47.424Z,7.67
2018-09-01T19:17:15.450Z,7.80
2018-09-01T19:19:43.482Z,7.87
2018-09-01T19:22:11.547Z,7.90
2018-09-01T19:24:39.589Z,7.60
2018-09-01T19:27:07.659Z,7.33
2018-09-01T19:29:35.671Z,7.57
2018-09-01T19:32:03.712Z,9.20
2018-09-01T19:34:31.751Z,7.60
2018-09-01T19:36:59.794Z,7.53
2018-09-01T19:39:27.847Z,6.97
2018-09-01T19:41:55.887Z,6.90
2018-09-01T19:44:24.068Z,7.77
2018-09-01T19:46:52.093Z,7.03
2018-09-01T19:49:20.116Z,7.30
2018-09-01T19:51:48.159Z,8.30
2018-09-01T19:54:16.216Z,7.53
2018-09-01T19:56:44.278Z,7.20
2018-09-01T19:59:12.345Z,6.90
2018-09-01T20:01:40.386Z,7.47
2018-09-01T20:04:08.451Z,7.83
2018-09-01T20:06:36.489Z,7.63
2018-09-01T20:09:05.535Z,7.97
2018-09-01T20:11:33.585Z,8.10
2018-09-01T20:14:01.699Z,8.83
2018-09-01T20:16:29.715Z,8.70
2018-09-01T20:18:57.734Z,8.00
2018-09-01T20:21:25.787Z,8.33
2018-09-01T20:23:53.841Z,7.77
2018-09-01T20:26:21.872Z,8.20
2018-09-01T20:28:49.928Z,7.90
2018-09-01T20:31:18.024Z,8.00
2018-09-01T20:33:46.073Z,7.80
2018-09-01T20:36:15.667Z,8.50
2018-09-01T20:38:43.711Z,10.33
2018-09-01T20:41:11.764Z,14.67
2018-09-01T20:43:39.827Z,12.10
2018-09-01T20:46:08.092Z,10.07
2018-09-01T20:48:36.112Z,9.23
2018-09-01T20:51:04.171Z,8.77
2018-09-01T20:53:32.217Z,9.17
2018-09-01T20:56:00.245Z,8.27
2018-09-01T20:58:28.293Z,8.27
2018-09-01T21:00:56.482Z,8.40
2018-09-01T21:03:24.529Z,8.50
2018-09-01T21:05:52.724Z,8.50
2018-09-01T21:08:20.952Z,8.77
2018-09-01T21:10:49.021Z,7.97
2018-09-01T21:13:17.078Z,8.40
2018-09-01T21:15:45.108Z,9.33
2018-09-01T21:18:13.161Z,8.97
2018-09-01T21:20:41.256Z,10.83
2018-09-01T21:23:09.328Z,10.10
2018-09-01T21:25:37.376Z,10.00
2018-09-01T21:28:05.527Z,10.00
2018-09-01T21:30:33.668Z,10.50
2018-09-01T21:33:01.750Z,12.20
2018-09-01T21:35:29.823Z,12.83
2018-09-01T21:37:57.909Z,12.60
2018-09-01T21:40:26.036Z,10.20
2018-09-01T21:42:54.101Z,9.40
2018-09-01T21:45:22.132Z,9.93
2018-09-01T21:47:50.164Z,10.30
2018-09-01T21:50:18.206Z,9.73
2018-09-01T21:52:46.260Z,9.83
2018-09-01T21:55:14.302Z,9.23
2018-09-01T21:57:42.373Z,9.13
2018-09-01T22:00:10.717Z,8.43
2018-09-01T22:02:38.743Z,8.33
2018-09-01T22:05:12.586Z,8.53
2018-09-01T22:07:40.632Z,8.63
2018-09-01T22:10:08.767Z,8.37
2018-09-01T22:12:36.766Z,8.70
2018-09-01T22:15:04.907Z,8.53
2018-09-01T22:17:32.959Z,8.40
2018-09-01T22:20:01.009Z,8.57
2018-09-01T22:22:29.047Z,8.83
2018-09-01T22:24:57.092Z,8.87
2018-09-01T22:27:25.158Z,8.53
2018-09-01T22:29:53.212Z,8.50
2018-09-01T22:32:21.238Z,8.73
2018-09-01T22:34:49.287Z,8.13
2018-09-01T22:37:17.301Z,8.47
2018-09-01T22:39:45.355Z,8.57
2018-09-01T22:42:13.420Z,8.40
2018-09-01T22:44:41.446Z,8.00
2018-09-01T22:47:12.502Z,8.33
2018-09-01T22:49:40.542Z,6.70
2018-09-01T22:52:08.574Z,7.67
2018-09-01T22:54:36.604Z,8.00
2018-09-01T22:57:04.854Z,7.67
2018-09-01T22:59:32.891Z,7.40
2018-09-01T23:02:00.956Z,7.33
2018-09-01T23:04:28.993Z,7.80
2018-09-01T23:06:57.037Z,7.77
2018-09-01T23:09:25.089Z,7.83
2018-09-01T23:11:53.121Z,7.90
2018-09-01T23:14:21.183Z,7.90
2018-09-01T23:16:49.268Z,8.57
2018-09-01T23:19:17.315Z,7.37
2018-09-01T23:21:45.368Z,7.37
2018-09-01T23:24:13.453Z,7.37
2018-09-01T23:26:41.524Z,7.67
2018-09-01T23:29:09.580Z,7.47
2018-09-01T23:31:37.662Z,7.90
2018-09-01T23:34:05.841Z,7.37
2018-09-01T23:36:33.945Z,7.30
2018-09-01T23:39:02.025Z,7.70
2018-09-01T23:41:30.069Z,7.60
2018-09-01T23:43:58.121Z,7.83
2018-09-01T23:46:26.232Z,7.17
2018-09-01T23:48:54.456Z,6.90
2018-09-01T23:51:22.537Z,7.87
2018-09-01T23:53:50.620Z,6.90
2018-09-01T23:56:18.964Z,7.63
2018-09-01T23:58:47.021Z,7.00
